x

South Hatteras - 225 South Of Cape Hatteras (41002) Wave Buoy

7:50am - Sat 25th Feb 2017 All times are EST. -5 hours from GMT.

  • Sig Wave height 8.9ft
  • Swell Direction
  • Peak Period 10s
  • Average Period 8s
  • Wind
    9mph, 11mph gusts
  • Sea Temp 70°f
  • 空気 Temp 70°f
  • Sea Pressure 1008.2mb
  • South Hatteras - 225 South Of Cape Hatteras
  • South Hatteras - 225 South Of Cape Hatteras

More Historic Weather Station data

Upgrade to MSW Pro to gain access to the past 30 days of data for over 8000 Wavebouys and Weather Stations around the globe.

Join Pro

Comparision Forecast

View Surf forecast
   
Sat 02/25 7:50am 9ft 10s 8s 9 11 mph 1008.2mb 70f 70f
6:50am 9.5ft 10s 8s 4 7 mph 1007.4mb 70f 69f
5:50am 10ft 10s 8s 7 9 mph 1007mb 70f 69f
4:50am 10ft 10s 8s 11 16 mph 1006.8mb 70f 69f
3:50am 10ft 10s 8s 11 13 mph 1006.3mb 70f 69f
2:50am 9ft 11s 8s 9 13 mph 1006.7mb 70f 69f
1:50am 9.5ft 10s 8s 9 11 mph 1006.9mb 70f 69f
12:50am 10ft 10s 8s 7 9 mph 1007.4mb 70f 69f
Fri 02/24 11:50pm 9.5ft 11s 7s 7
mph
1007.7mb 70f 69f
10:50pm 10ft 10s 8s 4 7 mph 1008mb 70f 69f
9:50pm 9.5ft 10s 8s  -  2 mph 1007.8mb 70f 68f
8:50pm 11ft 11s 8s 4 7 mph 1007.8mb 70f 68f
7:50pm 10ft 11s 8s 7 9 mph 1007.4mb 70f 69f
6:50pm 10ft 9s 8s 9 11 mph 1007.2mb 70f 69f
5:50pm 10ft 11s 7s 9 11 mph 1006.9mb 70f 69f
4:50pm 12ft 10s 8s 11 13 mph 1006.6mb 70f 70f
3:50pm 11ft 11s 8s 13 16 mph 1006.5mb 70f 70f
2:50pm 12.5ft 11s 8s 13 18 mph 1006.2mb 70f 69f
1:50pm 12ft 10s 8s 13 18 mph 1006.2mb 70f 69f
12:50pm 12.5ft 11s 8s 13 16 mph 1006.6mb 70f 70f
11:50am 11.5ft 8s 7s 13 20 mph 1007.1mb 70f 68f
10:50am 13ft 10s 7s 20 25 mph 1007.2mb 70f 69f
9:50am 13ft 10s 7s 27 34 mph 1007.3mb 70f 69f
8:50am 12.5ft 9s 7s 27 31 mph 1007.3mb 70f 68f
7:50am 13ft 9s 7s 29 34 mph 1007.1mb 70f 68f
6:50am 12.5ft 10s 7s 29 36 mph 1007.1mb 70f 69f
5:50am 12.5ft 10s 7s 27 29 mph 1007.6mb 70f 69f
4:50am 11ft 9s 7s 27 31 mph 1007.7mb 69f 69f
3:50am 12ft 8s 7s 27 34 mph 1007.3mb 69f 69f
2:50am 11ft 8s 6s 25 31 mph 1007.8mb 69f 68f
1:50am 13ft 9s 7s 22 29 mph 1008.7mb 69f 69f
12:50am 12ft 8s 7s 29 34 mph 1008.1mb 69f 69f
Thu 02/23 11:50pm 12ft 9s 7s 29 38 mph 1008.4mb 69f 69f
10:50pm 11.5ft 10s 7s 29 36 mph 1009.5mb 69f 68f
9:50pm 11ft 8s 7s 27 31 mph 1009.9mb 69f 68f
8:50pm 10.5ft 9s 7s 25 31 mph 1010.8mb 69f 67f
7:50pm 9ft 8s 6s 27 34 mph 1010.2mb 69f 68f
6:50pm 9ft 8s 6s 27 31 mph 1009.8mb 70f 69f
5:50pm 9ft 8s 6s 22 27 mph 1009.8mb 70f 68f
4:50pm 9ft 8s 6s 27 31 mph 1010mb 70f 69f
3:50pm 9ft 8s 6s 25 31 mph 1010.1mb 70f 69f
2:50pm 8.5ft 7s 6s 25 29 mph 1010.1mb 70f 69f
1:50pm 8ft 7s 6s 25 29 mph 1010.4mb 70f 69f
12:50pm 8ft 7s 6s 22 27 mph 1011.1mb 70f 69f
11:50am 7.5ft 7s 6s 22 27 mph 1012mb 70f 69f
10:50am 7ft 7s 6s 22 27 mph 1012.8mb 70f 69f
9:50am 7ft 7s 6s 25 29 mph 1013.1mb 70f 69f
8:50am 7ft 6s 5s 25 29 mph 1012.5mb 70f 68f
7:50am 6.5ft 6s 5s 25 29 mph 1012.4mb 70f 68f
6:50am 6ft 6s 5s 22 27 mph 1012.2mb 70f 68f
5:50am 6ft 6s 5s 22 27 mph 1011.6mb 70f 67f
4:50am 6ft 6s 5s 22 29 mph 1011mb 70f 67f
3:50am 6ft 6s 5s 25 27 mph 1011.3mb 70f 67f
2:50am 6ft 6s 5s 22 27 mph 1011.7mb 70f 67f
1:50am 5.5ft 11s 5s 25 29 mph 1011.8mb 70f 67f
12:50am 5.5ft 10s 5s 22 27 mph 1012.8mb 70f 67f
Wed 02/22 11:50pm 5.5ft 9s 5s 22 25 mph 1013.6mb 70f 67f
10:50pm 5ft 9s 5s 22 25 mph 1013.9mb 70f 67f
9:50pm 5ft 11s 5s 20 25 mph 1014.5mb 70f 67f
8:50pm 5ft 10s 6s 20 22 mph 1014.8mb 70f 67f
7:50pm 5.5ft 10s 6s 18 22 mph 1014.6mb 70f 66f
6:50pm 5ft 11s 6s 18 20 mph 1014.5mb 70f 66f
5:50pm 5ft 9s 6s 16 20 mph 1014.6mb 70f 66f
4:50pm 5ft 11s 6s 16 20 mph 1014.7mb 70f 66f
3:50pm 5ft 9s 6s 16 20 mph 1014.6mb 70f 65f
2:50pm 4.5ft 9s 6s 16 18 mph 1014.8mb 70f 65f
1:50pm 5ft 9s 6s 16 18 mph 1015.1mb 70f 65f
12:50pm 4.5ft 9s 6s 16 22 mph 1016mb 70f 65f
11:50am 4.5ft 10s 6s 16 20 mph 1016.4mb 70f 64f
10:50am 5ft 8s 6s 13 16 mph 1017.2mb 70f 65f
9:50am 4.5ft 8s 6s 16 20 mph 1017.3mb 71f 65f
8:50am 5ft 9s 6s 13 16 mph 1017.6mb 71f 65f
7:50am 4.5ft 9s 6s 11 13 mph 1017.5mb 71f 64f
5:50am 4.5ft 8s 5s 13 18 mph 1017.2mb 71f 64f
4:50am 4.5ft 8s 6s 13 18 mph 1017.1mb 71f 64f
3:50am 5ft 8s 6s 11 18 mph 1017.1mb 71f 64f
2:50am 4.5ft 8s 6s 18 22 mph 1016.8mb 71f 64f
1:50am 5ft 8s 5s 11 13 mph 1018mb 71f 64f
12:50am 5ft 8s 6s 18 22 mph 1018.3mb 71f 64f
Tue 02/21 11:50pm 5ft 8s 6s 13 18 mph 1019.1mb 71f 64f
10:50pm 5ft 8s 6s 16 20 mph 1019.1mb 71f 64f
9:50pm 4.5ft 8s 6s 13 18 mph 1020.1mb 71f 64f
8:50pm 5ft 8s 6s 13 16 mph 1020.3mb 71f 64f
7:50pm 4.5ft 8s 5s 16 18 mph 1020.5mb 71f 64f
6:50pm 4.5ft 8s 5s 16 20 mph 1020.2mb 71f 65f
5:50pm 5ft 7s 5s 13 18 mph 1020.4mb 71f 65f
4:50pm 5ft 8s 5s 16 18 mph 1020mb 71f 64f
3:50pm 4.5ft 8s 5s 13 18 mph 1019.8mb 71f 64f
2:50pm 5ft 8s 5s 13 22 mph 1020mb 71f 64f